Exeter, Pennsylvania
Current Conditions -  °F | °C
As of 5:54 PM on Monday 24 Nov 2014 (Local Time) from KAVP Reporting Station
Clear Clear  
Wind Chill: 64°   Ceiling: Unl
Heat Index: 64°   Visibility: 10mi
Dew Point: 51°   Wind: 17mph
Humidity: 63%   Direction: 200°SSW
Pressure: 29.56"   Gusts: 30mph
Location:  41.3688°N, 75.837°W
Report Text: KAVP 242254Z 20015G26KT 10SM CLR 18/11 A2956 RMK AO2 PK WND 20034/2222 SLP003 T01780106
Loading
Personal Weather Stations






























Interactive Weather Map New forecast layout! Learn more

10-Day Weather Forecast

Advertisements
Track Severe Weather on mobile